Wincoma, New York
Current Conditions -  °F | °C
As of 6:53 PM on Wednesday 22 Oct 2014 (Local Time) from KFRG Reporting Station
Light Rain Light Rain  
Wind Chill: 53°   Ceiling: 2400
Heat Index: 53°   Visibility: 10mi
Dew Point: 49°   Wind: 22mph
Humidity: 86%   Direction: 20°NNE
Pressure: 29.77"   Gusts: 33mph
Location:  40.8966°N, 73.4362°W
Report Text: KFRG 222253Z 02019G29KT 10SM -RA FEW014 BKN024 OVC029 12/09 A2977 RMK AO2 PK WND 02032/2200 RAB13 SLP080 P0004 T01170094
Loading
Personal Weather Stations






























Interactive Weather Map
Tropical Storm Tracking
New forecast layout! Learn more

10-Day Weather Forecast

Advertisements
Track Severe Weather on mobile